Time;durP1;ratioP1;P1;durP2;ratioP2;P2;SDS_P1;SDS_P2;PMS_P1;PMS_P2;Temp;Humidity;BMP_temperature;BMP_pressure;BME280_temperature;BME280_humidity;BME280_pressure;Samples;Min_cycle;Max_cycle;Signal;HPM_P1;HPM_P2
2023/04/11 00:02:24;;;;;;;;;;;;;;;;;;5041472;28;20363;-73
2023/04/11 00:04:53;;;;;;;;;;;;;;;;;;5029503;28;19924;-75
2023/04/11 00:07:21;;;;;;;;;;;;;;;;;;5045319;28;19917;-75
2023/04/11 00:09:51;;;;;;;;;;;;;;;;;;5046417;28;19924;-78
2023/04/11 00:12:16;;;;;;;;;;;;;;;;;;5049347;28;20512;-77
2023/04/11 00:14:47;;;;;;;;;;;;;;;;;;5026927;28;19912;-72
2023/04/11 00:17:13;;;;;;;;;;;;;;;;;;5036633;28;19924;-77
2023/04/11 00:19:42;;;;;;;;;;;;;;;;;;5051554;28;19921;-78
2023/04/11 00:22:10;;;;;;;;;;;;;;;;;;5045181;28;19917;-78
2023/04/11 00:24:40;;;;;;;;;;;;;;;;;;5044019;28;19939;-78
2023/04/11 00:27:05;;;;;;;;;;;;;;;;;;5030021;28;20262;-78
2023/04/11 00:29:32;;;;;;;;;;;;;;;;;;5029396;28;19919;-78
2023/04/11 00:31:58;;;;;;;;;;;;;;;;;;5049385;28;19931;-73
2023/04/11 00:34:29;;;;;;;;;;;;;;;;;;5018684;28;19913;-77
2023/04/11 00:36:55;;;;;;;;;;;;;;;;;;5043198;28;19982;-77
2023/04/11 00:39:25;;;;;;;;;;;;;;;;;;5045536;28;19942;-77
2023/04/11 00:41:53;;;;;;;;;;;;;;;;;;5018447;28;19917;-77
2023/04/11 00:44:24;;;;;;;;;;;;;;;;;;5039339;28;19974;-76
2023/04/11 00:46:52;;;;;;;;;;;;;;;;;;5037002;28;20412;-77
2023/04/11 00:49:17;;;;;;;;;;;;;;;;;;5021577;28;19986;-77
2023/04/11 00:51:52;;;;;;;;;;;;;;;;;;5035432;28;20680;-78
2023/04/11 00:54:17;;;;;;;;;;;;;;;;;;5024998;28;19921;-77
2023/04/11 01:00:02;;;;;;;;;;;;;;;;;;5022886;28;19932;-77
2023/04/11 01:02:32;;;;;;;;;;;;;;;;;;5022061;28;19921;-77
2023/04/11 01:04:59;;;;;;;;;;;;;;;;;;5037088;28;19928;-77
2023/04/11 01:07:27;;;;;;;;;;;;;;;;;;5037471;28;20400;-77
2023/04/11 01:09:55;;;;;;;;;;;;;;;;;;5034389;28;19994;-77
2023/04/11 01:12:23;;;;;;;;;;;;;;;;;;5021805;28;19921;-76
2023/04/11 01:14:51;;;;;;;;;;;;;;;;;;5038512;28;20012;-76
2023/04/11 01:17:17;;;;;;;;;;;;;;;;;;5022628;28;19921;-76
2023/04/11 01:19:47;;;;;;;;;;;;;;;;;;5007529;28;19959;-76
2023/04/11 01:22:13;;;;;;;;;;;;;;;;;;5023041;28;19917;-75
2023/04/11 01:24:44;;;;;;;;;;;;;;;;;;5037236;28;19929;-77
2023/04/11 01:27:09;;;;;;;;;;;;;;;;;;5037514;28;19967;-77
2023/04/11 01:29:38;;;;;;;;;;;;;;;;;;5020144;28;19928;-77
2023/04/11 01:32:03;;;;;;;;;;;;;;;;;;5037797;28;19921;-76
2023/04/11 01:34:31;;;;;;;;;;;;;;;;;;5024317;28;20015;-76
2023/04/11 01:36:59;;;;;;;;;;;;;;;;;;5035493;28;19925;-76
2023/04/11 01:39:24;;;;;;;;;;;;;;;;;;5040122;28;19932;-75
2023/04/11 01:41:50;;;;;;;;;;;;;;;;;;5036889;28;20678;-76
2023/04/11 01:44:18;;;;;;;;;;;;;;;;;;5039443;28;19920;-76
2023/04/11 01:46:43;;;;;;;;;;;;;;;;;;5020492;28;19921;-76
2023/04/11 01:49:09;;;;;;;;;;;;;;;;;;5040045;28;19925;-76
2023/04/11 01:51:35;;;;;;;;;;;;;;;;;;5022975;28;20442;-74
2023/04/11 01:54:03;;;;;;;;;;;;;;;;;;5038236;28;19999;-74
2023/04/11 01:56:29;;;;;;;;;;;;;;;;;;5039150;28;20304;-75
2023/04/11 01:58:57;;;;;;;;;;;;;;;;;;5027956;28;19921;-76
2023/04/11 02:01:25;;;;;;;;;;;;;;;;;;5027629;28;19978;-78
2023/04/11 02:03:50;;;;;;;;;;;;;;;;;;5040309;28;19921;-76
2023/04/11 02:06:16;;;;;;;;;;;;;;;;;;5041197;28;19920;-76
2023/04/11 02:08:43;;;;;;;;;;;;;;;;;;5027558;28;20380;-72
2023/04/11 02:11:09;;;;;;;;;;;;;;;;;;5042120;28;19956;-76
2023/04/11 02:13:34;;;;;;;;;;;;;;;;;;5042714;28;20012;-72
2023/04/11 02:16:02;;;;;;;;;;;;;;;;;;5042268;28;19921;-72
2023/04/11 02:18:30;;;;;;;;;;;;;;;;;;5042234;28;19931;-74
2023/04/11 02:21:01;;;;;;;;;;;;;;;;;;5040327;28;20086;-72
2023/04/11 02:23:26;;;;;;;;;;;;;;;;;;5027817;28;19921;-73
2023/04/11 02:25:54;;;;;;;;;;;;;;;;;;5024537;28;20291;-72
2023/04/11 02:28:22;;;;;;;;;;;;;;;;;;5026604;28;19989;-73
2023/04/11 02:30:48;;;;;;;;;;;;;;;;;;5025900;28;19924;-72
2023/04/11 02:33:16;;;;;;;;;;;;;;;;;;5024958;28;20003;-74
2023/04/11 02:35:43;;;;;;;;;;;;;;;;;;5026556;28;20015;-72
2023/04/11 02:38:14;;;;;;;;;;;;;;;;;;5040515;28;19974;-74
2023/04/11 02:40:39;;;;;;;;;;;;;;;;;;5040713;28;19990;-72
2023/04/11 02:43:10;;;;;;;;;;;;;;;;;;5023797;28;19975;-73
2023/04/11 02:45:35;;;;;;;;;;;;;;;;;;5043120;28;19916;-76
2023/04/11 02:48:00;;;;;;;;;;;;;;;;;;5027450;28;20265;-73
2023/04/11 02:50:30;;;;;;;;;;;;;;;;;;5040691;28;19931;-76
2023/04/11 02:52:59;;;;;;;;;;;;;;;;;;5020512;28;19920;-70
2023/04/11 02:55:29;;;;;;;;;;;;;;;;;;5024268;28;20011;-74
2023/04/11 02:57:54;;;;;;;;;;;;;;;;;;5025672;28;20063;-75
2023/04/11 03:00:20;;;;;;;;;;;;;;;;;;5039779;28;20010;-71
2023/04/11 03:02:45;;;;;;;;;;;;;;;;;;5040466;28;19934;-77
2023/04/11 03:05:10;;;;;;;;;;;;;;;;;;5024594;28;19917;-72
2023/04/11 03:07:39;;;;;;;;;;;;;;;;;;5033749;28;19920;-70
2023/04/11 03:10:04;;;;;;;;;;;;;;;;;;5019406;28;20423;-69
2023/04/11 03:12:29;;;;;;;;;;;;;;;;;;5039074;28;19920;-77
2023/04/11 03:14:58;;;;;;;;;;;;;;;;;;5042472;28;19921;-77
2023/04/11 03:17:23;;;;;;;;;;;;;;;;;;5043213;28;19916;-75
2023/04/11 03:19:54;;;;;;;;;;;;;;;;;;5026595;28;20053;-75
2023/04/11 03:22:22;;;;;;;;;;;;;;;;;;5038007;28;19924;-74
2023/04/11 03:24:48;;;;;;;;;;;;;;;;;;5025998;28;19949;-75
2023/04/11 03:27:14;;;;;;;;;;;;;;;;;;5006535;28;20019;-74
2023/04/11 03:29:40;;;;;;;;;;;;;;;;;;5026273;28;20464;-69
2023/04/11 03:32:08;;;;;;;;;;;;;;;;;;5044904;28;19967;-75
2023/04/11 03:34:33;;;;;;;;;;;;;;;;;;5024314;28;20031;-75
2023/04/11 03:36:58;;;;;;;;;;;;;;;;;;5020353;28;20903;-74
2023/04/11 03:39:24;;;;;;;;;;;;;;;;;;5023889;28;19928;-74
2023/04/11 03:41:49;;;;;;;;;;;;;;;;;;5038712;28;20055;-72
2023/04/11 03:44:15;;;;;;;;;;;;;;;;;;5019919;28;19940;-74
2023/04/11 03:46:43;;;;;;;;;;;;;;;;;;5040542;28;19923;-76
2023/04/11 03:49:11;;;;;;;;;;;;;;;;;;5024113;28;19995;-74
2023/04/11 03:51:42;;;;;;;;;;;;;;;;;;5021188;28;19931;-72
2023/04/11 03:54:10;;;;;;;;;;;;;;;;;;5020652;28;19927;-75
2023/04/11 03:56:35;;;;;;;;;;;;;;;;;;5037517;28;19921;-73
2023/04/11 03:59:01;;;;;;;;;;;;;;;;;;5039046;28;20011;-70
2023/04/11 04:01:31;;;;;;;;;;;;;;;;;;5038648;28;19927;-76
2023/04/11 04:03:59;;;;;;;;;;;;;;;;;;5039342;28;19939;-71
2023/04/11 04:06:25;;;;;;;;;;;;;;;;;;4992100;28;21081;-75
2023/04/11 04:08:53;;;;;;;;;;;;;;;;;;5022489;28;19920;-75
2023/04/11 04:11:19;;;;;;;;;;;;;;;;;;5022116;28;20002;-71
2023/04/11 04:13:46;;;;;;;;;;;;;;;;;;5038534;28;20396;-72
2023/04/11 04:16:17;;;;;;;;;;;;;;;;;;5038672;28;19927;-71
2023/04/11 04:18:42;;;;;;;;;;;;;;;;;;5038659;28;19935;-71
2023/04/11 04:21:08;;;;;;;;;;;;;;;;;;5020918;28;19916;-72
2023/04/11 04:23:34;;;;;;;;;;;;;;;;;;5039945;28;20054;-77
2023/04/11 04:26:00;;;;;;;;;;;;;;;;;;5037837;28;19925;-73
2023/04/11 04:28:26;;;;;;;;;;;;;;;;;;5039382;28;19924;-73
2023/04/11 04:30:56;;;;;;;;;;;;;;;;;;5021468;28;21219;-71
2023/04/11 04:33:22;;;;;;;;;;;;;;;;;;5040429;28;20054;-75
2023/04/11 04:35:50;;;;;;;;;;;;;;;;;;5022462;28;20288;-71
2023/04/11 04:38:16;;;;;;;;;;;;;;;;;;5026260;28;20007;-72
2023/04/11 04:40:42;;;;;;;;;;;;;;;;;;5023775;28;19931;-72
2023/04/11 04:43:07;;;;;;;;;;;;;;;;;;5005769;28;19951;-71
2023/04/11 04:45:33;;;;;;;;;;;;;;;;;;5023191;28;19944;-76
2023/04/11 04:48:01;;;;;;;;;;;;;;;;;;5020232;28;19945;-76
2023/04/11 04:50:30;;;;;;;;;;;;;;;;;;5039326;28;19925;-76
2023/04/11 04:52:55;;;;;;;;;;;;;;;;;;5038505;28;20003;-72
2023/04/11 04:55:27;;;;;;;;;;;;;;;;;;5024595;28;21849;-72
2023/04/11 04:57:55;;;;;;;;;;;;;;;;;;5038352;28;20413;-73
2023/04/11 05:00:21;;;;;;;;;;;;;;;;;;5022289;28;20498;-75
2023/04/11 05:02:49;;;;;;;;;;;;;;;;;;5041411;28;19917;-71
2023/04/11 05:05:14;;;;;;;;;;;;;;;;;;5028959;28;20011;-73
2023/04/11 05:07:42;;;;;;;;;;;;;;;;;;5027052;28;19921;-72
2023/04/11 05:10:07;;;;;;;;;;;;;;;;;;5040916;28;19967;-75
2023/04/11 05:12:36;;;;;;;;;;;;;;;;;;5010487;28;19920;-76
2023/04/11 05:15:04;;;;;;;;;;;;;;;;;;5042281;28;19944;-68
2023/04/11 05:17:32;;;;;;;;;;;;;;;;;;5039929;28;22044;-77
2023/04/11 05:19:57;;;;;;;;;;;;;;;;;;5040973;28;19931;-74
2023/04/11 05:22:22;;;;;;;;;;;;;;;;;;5028516;28;20048;-79
2023/04/11 05:24:50;;;;;;;;;;;;;;;;;;5038231;28;20060;-75
2023/04/11 05:27:18;;;;;;;;;;;;;;;;;;5024053;28;22026;-72
2023/04/11 05:29:43;;;;;;;;;;;;;;;;;;5021980;28;19917;-72
2023/04/11 05:32:12;;;;;;;;;;;;;;;;;;5024342;28;21825;-74
2023/04/11 05:34:40;;;;;;;;;;;;;;;;;;5046875;28;19920;-75
2023/04/11 05:37:05;;;;;;;;;;;;;;;;;;5040444;28;19929;-74
2023/04/11 05:39:34;;;;;;;;;;;;;;;;;;5039511;28;19921;-72
2023/04/11 05:42:04;;;;;;;;;;;;;;;;;;5008302;28;19928;-71
2023/04/11 05:44:32;;;;;;;;;;;;;;;;;;5037339;28;19922;-66
2023/04/11 05:46:57;;;;;;;;;;;;;;;;;;5040078;28;19925;-75
2023/04/11 05:49:28;;;;;;;;;;;;;;;;;;5023394;28;19944;-70
2023/04/11 05:51:53;;;;;;;;;;;;;;;;;;5022159;28;19932;-71
2023/04/11 05:54:18;;;;;;;;;;;;;;;;;;5038104;28;19976;-70
2023/04/11 05:56:44;;;;;;;;;;;;;;;;;;5020995;28;19940;-69
2023/04/11 05:59:12;;;;;;;;;;;;;;;;;;5020898;28;19921;-74
2023/04/11 06:01:38;;;;;;;;;;;;;;;;;;5038363;28;19921;-69
2023/04/11 06:04:04;;;;;;;;;;;;;;;;;;5025316;28;19932;-70
2023/04/11 06:06:32;;;;;;;;;;;;;;;;;;5004981;28;19921;-68
2023/04/11 06:09:00;;;;;;;;;;;;;;;;;;5040420;28;19917;-68
2023/04/11 06:11:26;;;;;;;;;;;;;;;;;;5004921;28;19943;-71
2023/04/11 06:13:52;;;;;;;;;;;;;;;;;;5022908;28;19920;-70
2023/04/11 06:16:20;;;;;;;;;;;;;;;;;;5035160;28;20028;-69
2023/04/11 06:18:45;;;;;;;;;;;;;;;;;;5020897;28;19935;-69
2023/04/11 06:21:11;;;;;;;;;;;;;;;;;;5037931;28;19928;-73
2023/04/11 06:23:38;;;;;;;;;;;;;;;;;;5006695;28;19917;-69
2023/04/11 06:26:03;;;;;;;;;;;;;;;;;;5006454;28;19956;-73
2023/04/11 06:28:32;;;;;;;;;;;;;;;;;;5036768;28;20020;-74
2023/04/11 06:30:57;;;;;;;;;;;;;;;;;;5039269;28;20467;-72
2023/04/11 06:33:22;;;;;;;;;;;;;;;;;;5040292;28;20053;-72
2023/04/11 06:35:51;;;;;;;;;;;;;;;;;;5038510;28;20517;-69
2023/04/11 06:38:21;;;;;;;;;;;;;;;;;;5041442;28;19921;-67
2023/04/11 06:40:47;;;;;;;;;;;;;;;;;;5040166;28;19917;-75
2023/04/11 06:43:15;;;;;;;;;;;;;;;;;;5024019;28;19920;-68
2023/04/11 06:48:57;;;;;;;;;;;;;;;;;;5026848;28;20028;-71
2023/04/11 06:51:22;;;;;;;;;;;;;;;;;;5038364;28;20102;-69
2023/04/11 06:53:52;;;;;;;;;;;;;;;;;;5024959;28;19920;-70
2023/04/11 06:56:18;;;;;;;;;;;;;;;;;;5039397;28;19917;-72
2023/04/11 06:58:44;;;;;;;;;;;;;;;;;;5042166;28;19924;-70
2023/04/11 07:01:14;;;;;;;;;;;;;;;;;;5038821;28;19917;-68
2023/04/11 07:03:42;;;;;;;;;;;;;;;;;;5043658;28;19924;-74
2023/04/11 07:06:07;;;;;;;;;;;;;;;;;;5040761;28;19916;-70
2023/04/11 07:08:33;;;;;;;;;;;;;;;;;;5025843;28;19923;-70
2023/04/11 07:11:03;;;;;;;;;;;;;;;;;;5023588;28;19924;-70
2023/04/11 07:13:28;;;;;;;;;;;;;;;;;;5025645;28;21984;-70
2023/04/11 07:15:57;;;;;;;;;;;;;;;;;;5023723;28;20275;-67
2023/04/11 07:18:26;;;;;;;;;;;;;;;;;;5041179;28;19928;-70
2023/04/11 07:20:51;;;;;;;;;;;;;;;;;;5025317;28;19917;-69
2023/04/11 07:23:17;;;;;;;;;;;;;;;;;;5022545;28;19921;-70
2023/04/11 07:25:43;;;;;;;;;;;;;;;;;;5025627;28;19923;-69
2023/04/11 07:28:14;;;;;;;;;;;;;;;;;;5023654;28;20360;-77
2023/04/11 07:30:42;;;;;;;;;;;;;;;;;;5040386;28;19983;-75
2023/04/11 07:33:07;;;;;;;;;;;;;;;;;;5026290;28;19916;-70
2023/04/11 07:35:33;;;;;;;;;;;;;;;;;;5039734;28;20471;-74
2023/04/11 07:37:59;;;;;;;;;;;;;;;;;;5019644;28;20055;-69
2023/04/11 07:40:25;;;;;;;;;;;;;;;;;;5020155;28;19957;-70
2023/04/11 07:42:50;;;;;;;;;;;;;;;;;;5019950;28;20048;-70
2023/04/11 07:45:16;;;;;;;;;;;;;;;;;;5006484;28;19917;-67
2023/04/11 07:47:44;;;;;;;;;;;;;;;;;;5037860;28;19932;-70
2023/04/11 07:50:09;;;;;;;;;;;;;;;;;;5037679;28;19921;-68
2023/04/11 07:52:34;;;;;;;;;;;;;;;;;;5033090;28;20364;-72
2023/04/11 07:55:03;;;;;;;;;;;;;;;;;;5036436;28;19921;-72
2023/04/11 07:57:28;;;;;;;;;;;;;;;;;;5005222;28;19952;-70
2023/04/11 07:59:57;;;;;;;;;;;;;;;;;;5017679;28;20472;-72
2023/04/11 08:02:27;;;;;;;;;;;;;;;;;;5022017;28;19921;-74
2023/04/11 08:04:52;;;;;;;;;;;;;;;;;;5020491;28;20024;-78
2023/04/11 08:07:21;;;;;;;;;;;;;;;;;;5035861;28;19939;-72
2023/04/11 08:09:50;;;;;;;;;;;;;;;;;;5035157;28;19975;-76
2023/04/11 08:15:33;;;;;;;;;;;;;;;;;;5004926;28;19928;-75
2023/04/11 08:17:59;;;;;;;;;;;;;;;;;;5018006;28;20273;-75
2023/04/11 08:20:27;;;;;;;;;;;;;;;;;;5036588;28;20025;-74
2023/04/11 08:22:54;;;;;;;;;;;;;;;;;;5017601;28;20690;-73
2023/04/11 08:25:21;;;;;;;;;;;;;;;;;;5021910;28;19940;-70
2023/04/11 08:27:46;;;;;;;;;;;;;;;;;;5003338;28;20047;-73
2023/04/11 08:33:29;;;;;;;;;;;;;;;;;;5004607;28;20288;-70
2023/04/11 08:35:55;;;;;;;;;;;;;;;;;;5031929;28;19929;-72
2023/04/11 08:38:20;;;;;;;;;;;;;;;;;;5022650;28;19927;-74
2023/04/11 08:40:45;;;;;;;;;;;;;;;;;;4989736;28;19996;-69
2023/04/11 08:43:11;;;;;;;;;;;;;;;;;;5016812;28;19921;-66
2023/04/11 08:45:39;;;;;;;;;;;;;;;;;;5006158;28;19982;-68
2023/04/11 08:51:21;;;;;;;;;;;;;;;;;;5003225;28;20755;-65
2023/04/11 08:53:49;;;;;;;;;;;;;;;;;;5021980;28;19943;-69
2023/04/11 08:56:17;;;;;;;;;;;;;;;;;;5007017;28;19921;-69
2023/04/11 08:58:46;;;;;;;;;;;;;;;;;;5023162;28;20523;-68
2023/04/11 09:01:16;;;;;;;;;;;;;;;;;;5006742;28;19917;-67
2023/04/11 09:03:42;;;;;;;;;;;;;;;;;;4988215;28;20296;-64
2023/04/11 09:06:08;;;;;;;;;;;;;;;;;;5019265;28;19921;-65
2023/04/11 09:08:35;;;;;;;;;;;;;;;;;;4984494;28;19952;-66
2023/04/11 09:11:00;;;;;;;;;;;;;;;;;;5015239;28;19982;-68
2023/04/11 09:13:30;;;;;;;;;;;;;;;;;;4997813;28;19917;-67
2023/04/11 09:15:56;;;;;;;;;;;;;;;;;;5020128;28;19917;-66
2023/04/11 09:18:21;;;;;;;;;;;;;;;;;;5005616;28;20026;-67
2023/04/11 09:21:00;;;;;;;;;;;;;;;;;;5001534;28;19917;-69
2023/04/11 09:23:26;;;;;;;;;;;;;;;;;;5023251;28;19921;-68
2023/04/11 09:25:51;;;;;;;;;;;;;;;;;;5001386;28;19921;-65
2023/04/11 09:28:16;;;;;;;;;;;;;;;;;;5007967;28;20004;-68
2023/04/11 09:30:42;;;;;;;;;;;;;;;;;;5001488;28;19925;-71
2023/04/11 09:33:10;;;;;;;;;;;;;;;;;;5017923;28;20355;-69
2023/04/11 09:35:35;;;;;;;;;;;;;;;;;;5007095;28;19918;-68
2023/04/11 09:38:02;;;;;;;;;;;;;;;;;;5017393;28;20464;-66
2023/04/11 09:40:30;;;;;;;;;;;;;;;;;;5037320;28;19921;-68
2023/04/11 09:42:57;;;;;;;;;;;;;;;;;;5019192;28;19928;-74
2023/04/11 09:45:22;;;;;;;;;;;;;;;;;;5055317;28;19921;-69
2023/04/11 09:47:47;;;;;;;;;;;;;;;;;;5055156;28;20356;-68
2023/04/11 09:50:13;;;;;;;;;;;;;;;;;;5052844;28;19948;-70
2023/04/11 09:52:38;;;;;;;;;;;;;;;;;;5039083;28;19924;-69
2023/04/11 09:55:04;;;;;;;;;;;;;;;;;;5038235;28;19920;-70
2023/04/11 09:57:29;;;;;;;;;;;;;;;;;;5033191;28;20643;-69
2023/04/11 09:59:55;;;;;;;;;;;;;;;;;;5035044;28;20058;-68
2023/04/11 10:02:20;;;;;;;;;;;;;;;;;;5037311;28;19921;-67
2023/04/11 10:04:46;;;;;;;;;;;;;;;;;;5054673;28;19924;-72
2023/04/11 10:07:11;;;;;;;;;;;;;;;;;;5021795;28;19921;-73
2023/04/11 10:09:37;;;;;;;;;;;;;;;;;;5023195;28;19990;-67
2023/04/11 10:12:03;;;;;;;;;;;;;;;;;;5038393;28;19924;-78
2023/04/11 10:14:28;;;;;;;;;;;;;;;;;;5023531;28;19924;-68
2023/04/11 10:16:54;;;;;;;;;;;;;;;;;;5054959;28;19935;-68
2023/04/11 10:19:22;;;;;;;;;;;;;;;;;;5026454;28;19966;-66
2023/04/11 10:21:48;;;;;;;;;;;;;;;;;;5057009;28;19925;-67
2023/04/11 10:24:13;;;;;;;;;;;;;;;;;;5040570;28;19917;-72
2023/04/11 10:26:41;;;;;;;;;;;;;;;;;;5055724;28;19924;-65
2023/04/11 10:29:06;;;;;;;;;;;;;;;;;;5024143;28;19917;-69
2023/04/11 10:31:38;;;;;;;;;;;;;;;;;;5057571;28;20323;-69
2023/04/11 10:34:03;;;;;;;;;;;;;;;;;;5026028;28;19920;-68
2023/04/11 10:36:28;;;;;;;;;;;;;;;;;;5025016;28;20327;-65
2023/04/11 10:38:54;;;;;;;;;;;;;;;;;;5026050;28;19921;-67
2023/04/11 10:41:19;;;;;;;;;;;;;;;;;;5023501;28;20020;-67
2023/04/11 10:43:45;;;;;;;;;;;;;;;;;;5040193;28;19963;-70
2023/04/11 10:46:10;;;;;;;;;;;;;;;;;;5040689;28;19998;-65
2023/04/11 10:48:36;;;;;;;;;;;;;;;;;;5057259;28;19952;-66
2023/04/11 10:51:01;;;;;;;;;;;;;;;;;;5056344;28;19924;-64
2023/04/11 10:53:32;;;;;;;;;;;;;;;;;;5055017;28;20482;-70
2023/04/11 10:55:58;;;;;;;;;;;;;;;;;;5057210;28;20011;-64
2023/04/11 10:58:24;;;;;;;;;;;;;;;;;;5056634;28;20283;-64
2023/04/11 11:00:49;;;;;;;;;;;;;;;;;;5040263;28;20003;-67
2023/04/11 11:03:15;;;;;;;;;;;;;;;;;;5040882;28;19944;-66
2023/04/11 11:05:43;;;;;;;;;;;;;;;;;;5058688;28;19921;-66
2023/04/11 11:08:10;;;;;;;;;;;;;;;;;;5023692;28;21391;-66
2023/04/11 11:10:36;;;;;;;;;;;;;;;;;;5021449;28;19936;-66
2023/04/11 11:13:02;;;;;;;;;;;;;;;;;;5058023;28;21951;-71
2023/04/11 11:15:35;;;;;;;;;;;;;;;;;;5039595;28;19920;-72
2023/04/11 11:18:00;;;;;;;;;;;;;;;;;;5026196;28;19921;-69
2023/04/11 11:20:26;;;;;;;;;;;;;;;;;;5056302;28;19925;-66
2023/04/11 11:22:51;;;;;;;;;;;;;;;;;;5021174;28;19917;-66
2023/04/11 11:25:18;;;;;;;;;;;;;;;;;;5024380;28;20006;-66
2023/04/11 11:27:46;;;;;;;;;;;;;;;;;;5056430;28;20335;-68
2023/04/11 11:30:12;;;;;;;;;;;;;;;;;;5039830;28;19921;-68
2023/04/11 11:32:37;;;;;;;;;;;;;;;;;;5055505;28;20008;-66
2023/04/11 11:35:04;;;;;;;;;;;;;;;;;;5041399;28;19921;-72
2023/04/11 11:37:30;;;;;;;;;;;;;;;;;;5039026;28;19954;-67
2023/04/11 11:39:57;;;;;;;;;;;;;;;;;;5057418;28;20546;-67
2023/04/11 11:42:22;;;;;;;;;;;;;;;;;;5056406;28;20268;-67
2023/04/11 11:44:48;;;;;;;;;;;;;;;;;;5056512;28;19929;-67
2023/04/11 11:47:16;;;;;;;;;;;;;;;;;;5040022;28;20407;-70
2023/04/11 11:49:44;;;;;;;;;;;;;;;;;;5054488;28;20598;-68
2023/04/11 11:52:10;;;;;;;;;;;;;;;;;;5054017;28;19925;-66
2023/04/11 11:54:35;;;;;;;;;;;;;;;;;;5056399;28;19923;-71
2023/04/11 11:57:01;;;;;;;;;;;;;;;;;;5023467;28;20392;-66
2023/04/11 11:59:29;;;;;;;;;;;;;;;;;;5023120;28;19999;-65
2023/04/11 12:01:55;;;;;;;;;;;;;;;;;;5024273;28;21751;-64
2023/04/11 12:04:23;;;;;;;;;;;;;;;;;;5022894;28;19921;-66
2023/04/11 12:06:48;;;;;;;;;;;;;;;;;;5039546;28;19917;-67
2023/04/11 12:09:14;;;;;;;;;;;;;;;;;;5056652;28;20869;-70
2023/04/11 12:11:42;;;;;;;;;;;;;;;;;;5054432;28;19920;-67
2023/04/11 12:14:08;;;;;;;;;;;;;;;;;;5056200;28;19928;-68
2023/04/11 12:16:33;;;;;;;;;;;;;;;;;;5023768;28;20496;-68
2023/04/11 12:18:59;;;;;;;;;;;;;;;;;;5038155;28;19921;-68
2023/04/11 12:21:25;;;;;;;;;;;;;;;;;;5051318;28;20917;-67
2023/04/11 12:23:50;;;;;;;;;;;;;;;;;;5056133;28;20341;-67
2023/04/11 12:26:16;;;;;;;;;;;;;;;;;;5054122;28;19928;-69
2023/04/11 12:28:42;;;;;;;;;;;;;;;;;;5056719;28;19921;-66
2023/04/11 12:31:07;;;;;;;;;;;;;;;;;;5039103;28;19987;-64
2023/04/11 12:33:32;;;;;;;;;;;;;;;;;;5023680;28;19996;-72
2023/04/11 12:35:58;;;;;;;;;;;;;;;;;;5031961;28;19927;-65
2023/04/11 12:38:23;;;;;;;;;;;;;;;;;;5055284;28;20007;-69
2023/04/11 12:40:50;;;;;;;;;;;;;;;;;;5037325;28;19923;-68
2023/04/11 12:43:15;;;;;;;;;;;;;;;;;;5022976;28;19921;-65
2023/04/11 12:45:40;;;;;;;;;;;;;;;;;;5036562;28;20260;-66
2023/04/11 12:48:06;;;;;;;;;;;;;;;;;;5039519;28;19970;-69
2023/04/11 12:53:48;;;;;;;;;;;;;;;;;;5023966;28;19932;-65
2023/04/11 12:56:14;;;;;;;;;;;;;;;;;;5038234;28;23668;-64
2023/04/11 12:58:39;;;;;;;;;;;;;;;;;;5037674;28;19991;-66
2023/04/11 13:01:06;;;;;;;;;;;;;;;;;;5056141;28;19932;-65
2023/04/11 13:03:34;;;;;;;;;;;;;;;;;;5040232;28;19952;-67
2023/04/11 13:05:59;;;;;;;;;;;;;;;;;;5023004;28;19944;-66
2023/04/11 13:08:26;;;;;;;;;;;;;;;;;;5037644;28;20003;-65
2023/04/11 13:10:51;;;;;;;;;;;;;;;;;;5038151;28;20063;-65
2023/04/11 13:13:17;;;;;;;;;;;;;;;;;;5056476;28;19932;-66
2023/04/11 13:15:42;;;;;;;;;;;;;;;;;;5023885;28;19938;-67
2023/04/11 13:18:10;;;;;;;;;;;;;;;;;;5055441;28;19920;-66
2023/04/11 13:20:41;;;;;;;;;;;;;;;;;;5021069;28;19920;-65
2023/04/11 13:23:07;;;;;;;;;;;;;;;;;;5042062;28;19917;-68
2023/04/11 13:25:32;;;;;;;;;;;;;;;;;;5054922;28;19966;-66
2023/04/11 13:27:58;;;;;;;;;;;;;;;;;;5037986;28;19921;-66
2023/04/11 13:30:23;;;;;;;;;;;;;;;;;;5023527;28;20035;-65
2023/04/11 13:32:49;;;;;;;;;;;;;;;;;;5025046;28;19925;-65
2023/04/11 13:35:15;;;;;;;;;;;;;;;;;;5039266;28;20009;-71
2023/04/11 13:40:35;;;;;;;;;;;;;;;;;;5023952;28;19943;-70
2023/04/11 13:43:00;;;;;;;;;;;;;;;;;;5038549;28;19921;-66
2023/04/11 13:45:25;;;;;;;;;;;;;;;;;;5056942;28;19935;-69
2023/04/11 13:47:53;;;;;;;;;;;;;;;;;;5024734;28;22054;-66
2023/04/11 13:50:18;;;;;;;;;;;;;;;;;;5023058;28;19917;-67
2023/04/11 13:52:44;;;;;;;;;;;;;;;;;;5056346;28;20066;-64
2023/04/11 13:55:09;;;;;;;;;;;;;;;;;;5040650;28;19923;-65
2023/04/11 13:57:35;;;;;;;;;;;;;;;;;;5059204;28;19999;-63
2023/04/11 14:00:00;;;;;;;;;;;;;;;;;;5041709;28;19927;-66
2023/04/11 14:02:26;;;;;;;;;;;;;;;;;;5058840;28;20296;-65
2023/04/11 14:04:52;;;;;;;;;;;;;;;;;;5044063;28;19921;-66
2023/04/11 14:07:18;;;;;;;;;;;;;;;;;;5055625;28;19925;-72
2023/04/11 14:09:43;;;;;;;;;;;;;;;;;;5058701;28;19925;-65
2023/04/11 14:12:09;;;;;;;;;;;;;;;;;;5027517;28;20011;-64
2023/04/11 14:14:34;;;;;;;;;;;;;;;;;;5027959;28;19927;-65
2023/04/11 14:17:00;;;;;;;;;;;;;;;;;;5028052;28;20098;-69
2023/04/11 14:19:25;;;;;;;;;;;;;;;;;;5027064;28;19917;-64
2023/04/11 14:21:51;;;;;;;;;;;;;;;;;;5039986;28;19925;-67
2023/04/11 14:24:20;;;;;;;;;;;;;;;;;;5025353;28;19921;-64
2023/04/11 14:26:46;;;;;;;;;;;;;;;;;;5058441;28;21294;-66
2023/04/11 14:29:12;;;;;;;;;;;;;;;;;;5040924;28;19928;-65
2023/04/11 14:31:37;;;;;;;;;;;;;;;;;;5026453;28;19928;-65
2023/04/11 14:34:02;;;;;;;;;;;;;;;;;;5025738;28;19917;-65
2023/04/11 14:36:28;;;;;;;;;;;;;;;;;;5040933;28;19924;-69
2023/04/11 14:38:53;;;;;;;;;;;;;;;;;;5040912;28;20380;-67
2023/04/11 14:41:21;;;;;;;;;;;;;;;;;;5025158;28;19931;-68
2023/04/11 14:43:49;;;;;;;;;;;;;;;;;;5057991;28;19921;-67
2023/04/11 14:46:15;;;;;;;;;;;;;;;;;;5058287;28;20000;-67
2023/04/11 14:48:40;;;;;;;;;;;;;;;;;;5058218;28;20403;-64
2023/04/11 14:51:06;;;;;;;;;;;;;;;;;;5054845;28;19979;-65
2023/04/11 14:53:31;;;;;;;;;;;;;;;;;;5038911;28;20300;-66
2023/04/11 14:55:57;;;;;;;;;;;;;;;;;;5058419;28;19917;-65
2023/04/11 14:58:25;;;;;;;;;;;;;;;;;;5041225;28;19921;-67
2023/04/11 15:00:51;;;;;;;;;;;;;;;;;;5041938;28;19921;-64
2023/04/11 15:03:19;;;;;;;;;;;;;;;;;;5040681;28;19924;-65
2023/04/11 15:05:44;;;;;;;;;;;;;;;;;;5041312;28;19921;-66
2023/04/11 15:08:10;;;;;;;;;;;;;;;;;;5039265;28;19982;-66
2023/04/11 15:10:36;;;;;;;;;;;;;;;;;;5024762;28;19921;-67
2023/04/11 15:13:04;;;;;;;;;;;;;;;;;;5023651;28;20367;-64
2023/04/11 15:15:30;;;;;;;;;;;;;;;;;;5041771;28;19921;-65
2023/04/11 15:17:55;;;;;;;;;;;;;;;;;;5041200;28;19923;-63
2023/04/11 15:20:21;;;;;;;;;;;;;;;;;;5039183;28;19921;-64
2023/04/11 15:22:46;;;;;;;;;;;;;;;;;;5024586;28;20418;-70
2023/04/11 15:25:11;;;;;;;;;;;;;;;;;;5056642;28;20031;-67
2023/04/11 15:27:37;;;;;;;;;;;;;;;;;;5024780;28;19939;-66
2023/04/11 15:30:02;;;;;;;;;;;;;;;;;;5043920;28;19920;-68
2023/04/11 15:32:37;;;;;;;;;;;;;;;;;;5057931;28;20828;-66
2023/04/11 15:35:05;;;;;;;;;;;;;;;;;;5026583;28;19974;-66
2023/04/11 15:37:33;;;;;;;;;;;;;;;;;;5023920;28;19929;-67
2023/04/11 15:39:59;;;;;;;;;;;;;;;;;;5057704;28;19934;-64
2023/04/11 15:48:36;;;;;;;;;;;;;;;;;;5025793;28;19916;-68
2023/04/11 15:51:04;;;;;;;;;;;;;;;;;;5054638;28;19978;-66
2023/04/11 15:56:49;;;;;;;;;;;;;;;;;;5016966;28;19924;-66
2023/04/11 15:59:14;;;;;;;;;;;;;;;;;;5058238;28;19920;-74
2023/04/11 16:01:40;;;;;;;;;;;;;;;;;;5040682;28;19920;-65
2023/04/11 16:04:05;;;;;;;;;;;;;;;;;;5056847;28;19923;-64
2023/04/11 16:06:31;;;;;;;;;;;;;;;;;;5038118;28;19925;-67
2023/04/11 16:08:56;;;;;;;;;;;;;;;;;;5024178;28;19921;-63
2023/04/11 16:11:22;;;;;;;;;;;;;;;;;;5024577;28;20059;-65
2023/04/11 16:13:47;;;;;;;;;;;;;;;;;;5039835;28;19921;-64
2023/04/11 16:16:12;;;;;;;;;;;;;;;;;;5056086;28;19920;-67
2023/04/11 16:18:38;;;;;;;;;;;;;;;;;;5026088;28;19921;-64
2023/04/11 16:21:03;;;;;;;;;;;;;;;;;;5020705;28;19927;-65
2023/04/11 16:23:31;;;;;;;;;;;;;;;;;;5039524;28;19921;-64
2023/04/11 16:25:57;;;;;;;;;;;;;;;;;;5038431;28;19923;-66
2023/04/11 16:28:22;;;;;;;;;;;;;;;;;;5038105;28;19916;-64
2023/04/11 16:30:48;;;;;;;;;;;;;;;;;;5023541;28;20398;-62
2023/04/11 16:33:13;;;;;;;;;;;;;;;;;;5024378;28;19991;-63
2023/04/11 16:35:41;;;;;;;;;;;;;;;;;;5037823;28;20497;-67
2023/04/11 16:38:07;;;;;;;;;;;;;;;;;;5054133;28;19964;-67
2023/04/11 16:40:33;;;;;;;;;;;;;;;;;;5055468;28;20074;-67
2023/04/11 16:42:59;;;;;;;;;;;;;;;;;;5039049;28;19917;-65
2023/04/11 16:45:30;;;;;;;;;;;;;;;;;;5056375;28;20392;-64
2023/04/11 16:47:56;;;;;;;;;;;;;;;;;;5039077;28;19917;-64
2023/04/11 16:50:21;;;;;;;;;;;;;;;;;;5041832;28;19921;-64
2023/04/11 16:52:46;;;;;;;;;;;;;;;;;;5055285;28;19921;-65
2023/04/11 16:55:15;;;;;;;;;;;;;;;;;;5053986;28;19921;-64
2023/04/11 16:57:44;;;;;;;;;;;;;;;;;;5022811;28;20399;-67
2023/04/11 17:00:14;;;;;;;;;;;;;;;;;;5024144;28;19920;-64
2023/04/11 17:02:39;;;;;;;;;;;;;;;;;;5054912;28;19921;-64
2023/04/11 17:05:05;;;;;;;;;;;;;;;;;;5026155;28;19962;-65
2023/04/11 17:07:32;;;;;;;;;;;;;;;;;;5055499;28;19927;-64
2023/04/11 17:09:57;;;;;;;;;;;;;;;;;;5023617;28;19923;-65
2023/04/11 17:12:23;;;;;;;;;;;;;;;;;;5055531;28;19937;-66
2023/04/11 17:14:48;;;;;;;;;;;;;;;;;;5024066;28;19917;-67